Time;durP1;ratioP1;P1;durP2;ratioP2;P2;SDS_P1;SDS_P2;PMS_P1;PMS_P2;Temp;Humidity;BMP_temperature;BMP_pressure;BME280_temperature;BME280_humidity;BME280_pressure;Samples;Min_cycle;Max_cycle;Signal;HPM_P1;HPM_P2
2023/03/08 00:00:51;;;;;;;1.55;0.40;;;19.40;54.60;;;;;;5025090;28;20037;-65
2023/03/08 00:03:16;;;;;;;5.30;0.70;;;19.30;54.50;;;;;;5016534;28;20080;-66
2023/03/08 00:05:42;;;;;;;2.42;0.60;;;19.30;54.40;;;;;;5017986;28;20557;-65
2023/03/08 00:08:07;;;;;;;2.75;0.50;;;19.30;54.50;;;;;;5015982;28;20209;-65
2023/03/08 00:10:33;;;;;;;2.45;0.50;;;19.30;54.50;;;;;;5020990;28;20041;-65
2023/03/08 00:12:58;;;;;;;1.42;0.60;;;19.30;54.40;;;;;;5020020;28;20042;-65
2023/03/08 00:15:24;;;;;;;2.53;0.40;;;19.30;54.40;;;;;;5030286;28;20457;-66
2023/03/08 00:17:50;;;;;;;2.45;0.45;;;19.30;54.40;;;;;;5015056;28;20107;-65
2023/03/08 00:20:15;;;;;;;2.50;0.60;;;19.20;54.30;;;;;;5018684;28;20033;-65
2023/03/08 00:22:41;;;;;;;2.47;0.40;;;19.30;54.40;;;;;;5022331;28;20402;-65
2023/03/08 00:25:10;;;;;;;2.15;0.40;;;19.30;54.40;;;;;;5016807;28;20489;-65
2023/03/08 00:27:36;;;;;;;1.27;0.40;;;19.20;54.40;;;;;;5015766;28;20038;-65
2023/03/08 00:30:03;;;;;;;1.08;0.30;;;19.20;54.30;;;;;;5020237;28;20493;-66
2023/03/08 00:32:29;;;;;;;1.08;0.30;;;19.20;54.30;;;;;;5023400;28;20046;-65
2023/03/08 00:34:54;;;;;;;2.05;0.50;;;19.20;54.30;;;;;;5015779;28;20049;-65
2023/03/08 00:37:20;;;;;;;1.52;0.40;;;19.20;54.30;;;;;;5016206;28;20042;-65
2023/03/08 00:39:52;;;;;;;1.00;0.40;;;19.20;54.40;;;;;;5015119;28;20429;-65
2023/03/08 00:42:19;;;;;;;2.08;0.38;;;19.20;54.40;;;;;;5033421;28;20488;-65
2023/03/08 00:44:44;;;;;;;2.15;0.50;;;19.20;54.40;;;;;;5022360;28;20109;-65
2023/03/08 00:47:10;;;;;;;1.25;0.40;;;19.20;54.40;;;;;;5030625;28;20447;-65
2023/03/08 00:49:35;;;;;;;1.10;0.35;;;19.20;54.40;;;;;;5014727;28;20045;-65
2023/03/08 00:52:01;;;;;;;0.95;0.35;;;19.10;54.30;;;;;;5024365;28;20038;-65
2023/03/08 00:54:28;;;;;;;1.77;0.43;;;19.10;54.30;;;;;;5023683;28;20044;-65
2023/03/08 00:56:53;;;;;;;1.52;0.30;;;19.10;54.30;;;;;;5022471;28;20108;-65
2023/03/08 00:59:19;;;;;;;2.25;0.50;;;19.10;54.30;;;;;;5014211;28;20042;-65
2023/03/08 01:01:44;;;;;;;1.95;0.40;;;19.10;54.30;;;;;;5023307;28;20080;-65
2023/03/08 01:04:11;;;;;;;3.30;0.50;;;19.10;54.30;;;;;;5020795;28;20485;-65
2023/03/08 01:06:37;;;;;;;1.52;0.40;;;19.10;54.30;;;;;;5015934;28;20049;-65
2023/03/08 01:09:03;;;;;;;1.17;0.40;;;19.10;54.30;;;;;;5015097;28;20042;-65
2023/03/08 01:11:29;;;;;;;1.85;0.40;;;19.00;54.30;;;;;;5024701;28;20408;-65
2023/03/08 01:13:54;;;;;;;1.85;0.35;;;19.00;54.20;;;;;;5014479;28;20122;-65
2023/03/08 01:16:22;;;;;;;3.58;0.35;;;19.00;54.20;;;;;;5016596;28;20508;-65
2023/03/08 01:18:47;;;;;;;0.95;0.32;;;19.00;54.30;;;;;;5014562;28;20053;-65
2023/03/08 01:21:13;;;;;;;1.13;0.40;;;19.00;54.20;;;;;;5021489;28;20038;-65
2023/03/08 01:23:39;;;;;;;2.03;0.32;;;19.00;54.20;;;;;;5015381;28;20128;-65
2023/03/08 01:26:06;;;;;;;1.48;0.43;;;19.00;54.20;;;;;;5015211;28;20053;-65
2023/03/08 01:28:32;;;;;;;2.92;0.43;;;18.90;54.20;;;;;;5013604;28;20124;-66
2023/03/08 01:31:12;;;;;;;1.27;0.30;;;18.90;54.20;;;;;;5019419;28;20076;-65
2023/03/08 01:33:37;;;;;;;2.53;0.43;;;18.90;54.20;;;;;;5015343;28;20891;-65
2023/03/08 01:36:04;;;;;;;1.10;0.40;;;18.90;54.20;;;;;;5016470;28;20065;-65
2023/03/08 01:38:30;;;;;;;0.95;0.30;;;18.90;54.20;;;;;;5013996;28;20482;-65
2023/03/08 01:40:56;;;;;;;1.63;0.40;;;18.90;54.30;;;;;;5017782;28;20048;-65
2023/03/08 01:43:23;;;;;;;1.63;0.40;;;18.90;54.20;;;;;;5019830;28;20058;-65
2023/03/08 01:46:28;;;;;;;1.35;0.40;;;18.80;54.20;;;;;;5015885;28;20061;-65
2023/03/08 01:48:53;;;;;;;0.98;0.40;;;18.80;54.10;;;;;;5018757;28;20112;-65
2023/03/08 01:51:30;;;;;;;0.60;0.28;;;18.80;54.10;;;;;;5020830;28;20052;-65
2023/03/08 01:53:56;;;;;;;1.38;0.40;;;18.90;54.10;;;;;;5014784;28;20041;-65
2023/03/08 01:56:21;;;;;;;1.25;0.30;;;18.80;54.10;;;;;;5014008;28;20409;-65
2023/03/08 01:58:47;;;;;;;1.88;0.32;;;18.80;54.10;;;;;;5012625;28;20389;-65
2023/03/08 02:01:13;;;;;;;0.95;0.30;;;18.80;54.10;;;;;;5018228;28;20140;-65
2023/03/08 02:03:39;;;;;;;0.90;0.35;;;18.80;54.10;;;;;;5016055;28;20077;-65
2023/03/08 02:06:05;;;;;;;0.77;0.40;;;18.80;54.10;;;;;;5014164;28;20405;-66
2023/03/08 02:08:31;;;;;;;1.70;0.40;;;18.80;54.10;;;;;;4995570;28;20049;-65
2023/03/08 02:10:57;;;;;;;1.42;0.30;;;18.80;54.10;;;;;;5015398;28;20034;-65
2023/03/08 02:13:23;;;;;;;1.55;0.30;;;18.80;54.10;;;;;;5019938;28;20508;-65
2023/03/08 02:15:48;;;;;;;0.60;0.30;;;18.80;54.10;;;;;;5012682;28;20045;-66
2023/03/08 02:18:14;;;;;;;0.82;0.30;;;18.80;54.40;;;;;;5012737;28;20048;-65
2023/03/08 02:20:40;;;;;;;1.67;0.40;;;18.80;54.00;;;;;;5013725;28;20046;-65
2023/03/08 02:23:17;;;;;;;1.52;0.40;;;18.80;54.00;;;;;;5024012;28;20088;-65
2023/03/08 02:25:58;;;;;;;0.85;0.30;;;18.80;54.00;;;;;;5011990;28;20058;-65
2023/03/08 02:28:24;;;;;;;1.30;0.40;;;18.80;54.00;;;;;;5012739;28;20468;-66
2023/03/08 02:30:50;;;;;;;0.98;0.40;;;18.80;54.00;;;;;;5013405;28;20026;-65
2023/03/08 02:33:16;;;;;;;1.58;0.40;;;18.80;54.00;;;;;;5021419;28;20400;-65
2023/03/08 02:35:43;;;;;;;1.45;0.40;;;18.80;54.00;;;;;;5013283;28;20038;-65
2023/03/08 02:38:12;;;;;;;2.22;0.40;;;18.80;54.00;;;;;;5024637;28;20587;-65
2023/03/08 02:40:38;;;;;;;0.98;0.50;;;18.80;54.00;;;;;;5013267;28;20042;-65
2023/03/08 02:43:04;;;;;;;2.05;0.70;;;18.80;54.00;;;;;;5022806;28;20375;-64
2023/03/08 02:45:30;;;;;;;1.80;0.40;;;18.80;54.00;;;;;;5012273;28;20056;-65
2023/03/08 02:47:55;;;;;;;0.98;0.30;;;18.80;54.00;;;;;;5014848;28;20121;-65
2023/03/08 02:50:21;;;;;;;0.80;0.40;;;18.80;54.00;;;;;;5011434;28;20129;-64
2023/03/08 02:52:46;;;;;;;0.70;0.30;;;18.80;54.10;;;;;;5019993;28;20042;-64
2023/03/08 02:55:12;;;;;;;0.85;0.30;;;18.80;54.00;;;;;;5015247;28;20051;-64
2023/03/08 02:57:37;;;;;;;0.80;0.32;;;18.80;54.00;;;;;;5019830;28;20600;-65
2023/03/08 03:00:03;;;;;;;0.55;0.22;;;18.80;54.00;;;;;;5030828;28;20098;-65
2023/03/08 03:02:31;;;;;;;0.50;0.30;;;18.80;54.00;;;;;;5024777;28;20051;-65
2023/03/08 03:04:57;;;;;;;1.48;0.40;;;18.80;54.00;;;;;;5012062;28;20096;-65
2023/03/08 03:07:22;;;;;;;0.93;0.30;;;18.80;53.90;;;;;;5013805;28;20038;-65
2023/03/08 03:09:48;;;;;;;1.08;0.30;;;18.80;53.90;;;;;;5012740;28;20045;-65
2023/03/08 03:12:13;;;;;;;1.48;0.30;;;18.80;53.90;;;;;;5021822;28;20033;-65
2023/03/08 03:14:39;;;;;;;1.33;0.40;;;18.80;53.90;;;;;;5011350;28;20099;-65
2023/03/08 03:17:04;;;;;;;0.70;0.25;;;18.80;53.90;;;;;;5014144;28;20080;-65
2023/03/08 03:19:30;;;;;;;2.03;0.40;;;18.90;54.00;;;;;;5011649;28;20375;-65
2023/03/08 03:21:55;;;;;;;0.50;0.20;;;18.90;53.90;;;;;;5019445;28;20042;-65
2023/03/08 03:24:21;;;;;;;0.57;0.32;;;18.80;53.80;;;;;;5015419;28;20048;-65
2023/03/08 03:26:50;;;;;;;0.93;0.32;;;18.90;53.80;;;;;;5012166;28;20509;-65
2023/03/08 03:29:15;;;;;;;0.38;0.20;;;18.80;53.80;;;;;;5012867;28;20053;-65
2023/03/08 03:31:41;;;;;;;1.42;0.40;;;18.90;53.80;;;;;;5016257;28;20120;-65
2023/03/08 03:34:06;;;;;;;0.68;0.30;;;18.90;53.80;;;;;;5016612;28;20478;-65
2023/03/08 03:36:33;;;;;;;0.70;0.30;;;18.90;53.90;;;;;;5011775;28;20625;-65
2023/03/08 03:38:58;;;;;;;0.70;0.30;;;18.90;53.80;;;;;;5012547;28;20042;-65
2023/03/08 03:41:27;;;;;;;1.05;0.40;;;18.90;53.80;;;;;;5012887;28;20111;-65
2023/03/08 03:43:52;;;;;;;;;;;18.90;53.80;;;;;;5028985;28;20049;-65
2023/03/08 03:46:19;;;;;;;1.70;0.30;;;18.90;53.80;;;;;;5031357;28;19931;-65
2023/03/08 03:48:44;;;;;;;1.25;0.32;;;18.90;53.80;;;;;;5010875;28;20053;-65
2023/03/08 03:51:15;;;;;;;0.93;0.35;;;18.80;53.80;;;;;;5012509;28;20041;-65
2023/03/08 03:53:40;;;;;;;0.50;0.28;;;18.90;53.80;;;;;;5021077;28;20125;-65
2023/03/08 03:56:13;;;;;;;0.93;0.30;;;18.90;53.80;;;;;;5011726;28;20117;-65
2023/03/08 03:58:39;;;;;;;2.03;0.30;;;18.90;53.80;;;;;;5011870;28;20053;-65
2023/03/08 04:01:09;;;;;;;1.80;0.50;;;18.90;53.80;;;;;;5022381;28;20049;-65
2023/03/08 04:03:34;;;;;;;1.08;0.52;;;18.90;53.80;;;;;;5024240;28;20498;-65
2023/03/08 04:06:07;;;;;;;0.98;0.30;;;18.80;53.80;;;;;;5018928;28;20096;-65
2023/03/08 04:08:33;;;;;;;0.73;0.30;;;18.90;53.80;;;;;;5011171;28;20060;-66
2023/03/08 04:10:59;;;;;;;0.57;0.30;;;18.80;53.70;;;;;;5010809;28;20034;-66
2023/03/08 04:13:25;;;;;;;0.75;0.30;;;18.90;53.80;;;;;;5021630;28;20048;-65
2023/03/08 04:15:50;;;;;;;0.68;0.38;;;18.80;53.70;;;;;;5016022;28;20045;-66
2023/03/08 04:18:16;;;;;;;1.92;0.30;;;18.90;53.80;;;;;;5013466;28;20038;-65
2023/03/08 04:20:44;;;;;;;0.40;0.30;;;18.90;53.80;;;;;;5011727;28;20107;-65
2023/03/08 04:23:09;;;;;;;0.47;0.20;;;18.90;53.70;;;;;;5020310;28;20069;-65
2023/03/08 04:25:35;;;;;;;0.85;0.30;;;18.90;53.70;;;;;;5016867;28;20080;-66
2023/03/08 04:28:00;;;;;;;2.25;0.40;;;18.90;53.70;;;;;;5021102;28;20449;-65
2023/03/08 04:30:26;;;;;;;0.30;0.22;;;18.90;53.70;;;;;;5009522;28;20064;-65
2023/03/08 04:32:51;;;;;;;0.90;0.30;;;18.90;53.70;;;;;;5021129;28;20041;-65
2023/03/08 04:35:18;;;;;;;0.45;0.30;;;18.90;53.70;;;;;;5012176;28;20054;-66
2023/03/08 04:37:44;;;;;;;0.50;0.30;;;18.90;53.70;;;;;;5012864;28;20050;-65
2023/03/08 04:40:12;;;;;;;1.08;0.40;;;18.90;53.60;;;;;;5015803;28;20042;-65
2023/03/08 04:42:39;;;;;;;0.75;0.30;;;19.00;53.60;;;;;;5023138;28;20053;-65
2023/03/08 04:45:06;;;;;;;0.85;0.40;;;19.00;53.60;;;;;;5017289;28;20048;-66
2023/03/08 04:47:32;;;;;;;0.70;0.35;;;19.00;53.60;;;;;;5016237;28;20057;-65
2023/03/08 04:49:57;;;;;;;0.60;0.30;;;19.00;53.60;;;;;;5015690;28;20034;-65
2023/03/08 04:52:23;;;;;;;2.15;0.40;;;19.00;53.60;;;;;;5020187;28;20084;-66
2023/03/08 04:54:48;;;;;;;0.90;0.30;;;19.00;53.60;;;;;;5019383;28;20037;-66
2023/03/08 04:57:14;;;;;;;1.42;0.30;;;19.00;53.60;;;;;;5016136;28;20084;-66
2023/03/08 04:59:41;;;;;;;1.13;0.40;;;19.00;53.60;;;;;;5015672;28;20046;-65
2023/03/08 05:02:07;;;;;;;0.57;0.30;;;19.10;53.50;;;;;;5029258;28;20556;-65
2023/03/08 05:04:32;;;;;;;0.75;0.30;;;19.00;53.50;;;;;;5017590;28;20064;-65
2023/03/08 05:06:58;;;;;;;1.40;0.50;;;19.10;53.50;;;;;;5024526;28;20524;-66
2023/03/08 05:09:23;;;;;;;0.65;0.30;;;19.10;53.50;;;;;;5014869;28;20045;-65
2023/03/08 05:11:49;;;;;;;1.17;0.40;;;19.10;53.50;;;;;;5014339;28;20054;-66
2023/03/08 05:14:15;;;;;;;0.68;0.30;;;19.10;53.50;;;;;;5029794;28;20159;-65
2023/03/08 05:16:40;;;;;;;1.05;0.28;;;19.10;53.40;;;;;;5019243;28;20073;-65
2023/03/08 05:19:06;;;;;;;0.60;0.30;;;19.10;53.40;;;;;;5015246;28;20050;-65
2023/03/08 05:21:31;;;;;;;0.47;0.30;;;19.10;53.40;;;;;;5014609;28;20054;-65
2023/03/08 05:23:59;;;;;;;0.60;0.40;;;19.10;54.10;;;;;;5022906;28;20128;-65
2023/03/08 05:26:24;;;;;;;0.45;0.32;;;19.10;53.40;;;;;;5013849;28;20092;-66
2023/03/08 05:28:50;;;;;;;1.52;0.43;;;19.20;54.10;;;;;;5015833;28;20102;-65
2023/03/08 05:31:19;;;;;;;0.80;0.30;;;19.20;53.40;;;;;;5014028;28;20064;-66
2023/03/08 05:33:46;;;;;;;2.28;0.38;;;19.20;53.40;;;;;;5022787;28;20045;-65
2023/03/08 05:36:12;;;;;;;1.15;0.40;;;19.20;53.40;;;;;;5014594;28;20049;-66
2023/03/08 05:38:38;;;;;;;1.00;0.30;;;19.20;53.40;;;;;;5015460;28;20056;-66
2023/03/08 05:41:05;;;;;;;0.93;0.38;;;19.20;53.40;;;;;;5013473;28;20046;-66
2023/03/08 05:43:31;;;;;;;0.40;0.30;;;19.20;53.40;;;;;;5023047;28;20085;-66
2023/03/08 05:46:16;;;;;;;0.77;0.30;;;19.20;53.30;;;;;;5012507;28;20073;-66
2023/03/08 05:48:42;;;;;;;1.00;0.40;;;19.30;53.30;;;;;;5015241;28;20177;-66
2023/03/08 05:51:09;;;;;;;1.10;0.30;;;19.20;53.30;;;;;;5016509;28;20566;-66
2023/03/08 05:53:35;;;;;;;0.88;0.30;;;19.20;53.30;;;;;;5022975;28;21331;-66
2023/03/08 05:56:08;;;;;;;0.65;0.30;;;19.20;53.20;;;;;;5028019;28;20045;-67
2023/03/08 05:58:34;;;;;;;1.25;0.40;;;19.20;53.20;;;;;;5013743;28;20525;-66
2023/03/08 06:01:10;;;;;;;1.20;0.38;;;19.30;53.30;;;;;;5013282;28;20050;-67
2023/03/08 06:03:36;;;;;;;1.90;0.40;;;19.30;53.20;;;;;;5022436;28;20293;-66
2023/03/08 06:06:02;;;;;;;0.93;0.30;;;19.30;53.20;;;;;;5013013;28;20516;-66
2023/03/08 06:08:27;;;;;;;0.43;0.30;;;19.30;53.20;;;;;;5013924;28;20038;-67
2023/03/08 06:10:53;;;;;;;1.27;0.40;;;19.30;53.20;;;;;;5025485;28;20103;-67
2023/03/08 06:13:18;;;;;;;0.68;0.30;;;19.30;53.10;;;;;;5030540;28;20075;-66
2023/03/08 06:15:44;;;;;;;0.40;0.28;;;19.30;53.10;;;;;;5018096;28;20041;-66
2023/03/08 06:18:09;;;;;;;0.50;0.30;;;19.30;53.10;;;;;;5019502;28;20046;-66
2023/03/08 06:20:35;;;;;;;0.80;0.50;;;19.30;53.10;;;;;;5022234;28;20573;-67
2023/03/08 06:23:01;;;;;;;1.20;0.40;;;19.30;53.10;;;;;;5018529;28;20103;-64
2023/03/08 06:25:26;;;;;;;1.02;0.40;;;19.30;53.10;;;;;;5015371;28;20042;-69
2023/03/08 06:27:52;;;;;;;1.20;0.40;;;19.40;53.10;;;;;;5014830;28;20038;-70
2023/03/08 06:30:17;;;;;;;1.52;0.43;;;19.40;53.10;;;;;;5011637;28;20509;-71
2023/03/08 06:32:43;;;;;;;3.38;0.35;;;19.40;53.00;;;;;;5014768;28;20043;-70
2023/03/08 06:35:09;;;;;;;1.77;0.50;;;19.40;53.00;;;;;;5019659;28;20111;-70
2023/03/08 06:37:34;;;;;;;1.45;0.40;;;19.40;53.00;;;;;;5013050;28;20046;-71
2023/03/08 06:40:00;;;;;;;1.88;0.50;;;19.40;53.00;;;;;;5013406;28;20037;-68
2023/03/08 06:42:26;;;;;;;1.23;0.40;;;19.40;52.90;;;;;;5013060;28;20049;-70
2023/03/08 06:44:52;;;;;;;2.08;0.50;;;19.40;52.90;;;;;;5023913;28;20073;-69
2023/03/08 06:47:17;;;;;;;2.03;0.43;;;19.40;52.90;;;;;;5018583;28;20046;-71
2023/03/08 06:49:43;;;;;;;4.70;0.77;;;19.40;52.80;;;;;;5022416;28;20482;-70
2023/03/08 06:52:09;;;;;;;7.20;0.88;;;19.40;52.40;;;;;;5012241;28;20042;-70
2023/03/08 06:54:34;;;;;;;4.20;0.80;;;19.40;52.30;;;;;;5023744;28;20073;-72
2023/03/08 06:57:00;;;;;;;3.47;1.05;;;19.40;52.30;;;;;;5020893;28;20050;-69
2023/03/08 06:59:25;;;;;;;3.45;0.60;;;19.50;52.40;;;;;;5013578;28;20525;-69
2023/03/08 07:01:51;;;;;;;3.10;0.60;;;19.50;52.60;;;;;;5011716;28;20401;-72
2023/03/08 07:04:19;;;;;;;1.52;0.52;;;19.50;52.70;;;;;;5028065;28;20033;-71
2023/03/08 07:06:45;;;;;;;0.95;0.45;;;19.50;52.80;;;;;;5012577;28;20042;-73
2023/03/08 07:09:12;;;;;;;1.52;0.52;;;19.50;52.80;;;;;;5013525;28;20071;-69
2023/03/08 07:11:38;;;;;;;3.05;0.60;;;19.50;52.90;;;;;;5011736;28;20042;-68
2023/03/08 07:14:03;;;;;;;2.50;0.47;;;19.60;52.90;;;;;;5019832;28;20041;-67
2023/03/08 07:16:29;;;;;;;1.63;0.40;;;19.50;52.80;;;;;;5029551;28;20045;-67
2023/03/08 07:18:55;;;;;;;1.83;0.40;;;19.60;52.90;;;;;;5029333;28;20045;-66
2023/03/08 07:21:22;;;;;;;2.17;0.40;;;19.60;52.90;;;;;;5018889;28;20041;-67
2023/03/08 07:23:50;;;;;;;2.33;0.60;;;19.60;53.00;;;;;;5032058;28;20041;-66
2023/03/08 07:26:16;;;;;;;1.65;0.50;;;19.60;53.00;;;;;;5012223;28;20489;-66
2023/03/08 07:28:41;;;;;;;1.90;0.50;;;19.60;53.00;;;;;;5011825;28;20045;-67
2023/03/08 07:31:10;;;;;;;1.88;0.50;;;19.60;53.10;;;;;;5012555;28;20048;-66
2023/03/08 07:33:35;;;;;;;2.25;0.50;;;19.60;53.00;;;;;;5017799;28;20477;-66
2023/03/08 07:36:01;;;;;;;2.50;0.70;;;19.60;53.00;;;;;;5014226;28;20060;-67
2023/03/08 07:38:27;;;;;;;1.95;0.70;;;19.60;53.10;;;;;;5020193;28;20084;-66
2023/03/08 07:40:53;;;;;;;1.10;0.43;;;19.70;53.10;;;;;;5019514;28;20045;-66
2023/03/08 07:43:19;;;;;;;3.10;0.50;;;19.70;53.20;;;;;;5024176;28;20049;-66
2023/03/08 07:45:44;;;;;;;3.95;0.47;;;19.70;53.20;;;;;;5017024;28;20148;-66
2023/03/08 07:48:10;;;;;;;1.08;0.50;;;19.70;53.20;;;;;;5011862;28;20041;-66
2023/03/08 07:50:36;;;;;;;1.15;0.50;;;19.70;53.10;;;;;;5018301;28;20092;-67
2023/03/08 07:53:03;;;;;;;2.03;0.52;;;19.70;53.10;;;;;;5030744;28;20069;-67
2023/03/08 07:55:28;;;;;;;1.45;0.60;;;19.70;53.10;;;;;;5019024;28;20477;-67
2023/03/08 07:57:54;;;;;;;2.30;0.57;;;19.70;53.10;;;;;;5012032;28;20053;-67
2023/03/08 08:00:20;;;;;;;3.22;0.50;;;19.70;53.10;;;;;;5010504;28;20042;-67
2023/03/08 08:02:46;;;;;;;0.75;0.50;;;19.70;53.10;;;;;;5011761;28;20042;-66
2023/03/08 08:05:12;;;;;;;1.70;0.60;;;19.70;53.10;;;;;;5022706;28;20548;-67
2023/03/08 08:07:38;;;;;;;2.13;0.77;;;19.70;53.10;;;;;;5018230;28;20177;-66
2023/03/08 08:10:04;;;;;;;3.42;0.73;;;19.70;53.00;;;;;;5011484;28;20081;-67
2023/03/08 08:12:29;;;;;;;2.17;0.57;;;19.70;53.00;;;;;;5011973;28;20046;-69
2023/03/08 08:14:55;;;;;;;3.58;0.88;;;19.80;53.10;;;;;;5029504;28;20045;-69
2023/03/08 08:17:21;;;;;;;2.60;0.70;;;19.80;53.10;;;;;;5026755;28;20497;-74
2023/03/08 08:19:46;;;;;;;1.75;0.75;;;19.80;53.20;;;;;;5016457;28;20050;-70
2023/03/08 08:22:12;;;;;;;3.03;0.70;;;19.80;53.30;;;;;;5014874;28;20128;-70
2023/03/08 08:24:38;;;;;;;5.32;0.90;;;19.80;53.50;;;;;;5024379;28;20089;-70
2023/03/08 08:27:03;;;;;;;2.83;0.90;;;19.80;53.40;;;;;;5016069;28;20038;-69
2023/03/08 08:29:29;;;;;;;2.85;0.73;;;19.90;53.50;;;;;;5015426;28;20049;-73
2023/03/08 08:31:55;;;;;;;2.17;0.63;;;19.90;53.50;;;;;;5015561;28;20041;-69
2023/03/08 08:34:21;;;;;;;2.65;0.77;;;19.90;53.60;;;;;;5024479;28;20038;-72
2023/03/08 08:36:47;;;;;;;3.00;0.90;;;19.90;53.70;;;;;;5014711;28;20474;-71
2023/03/08 08:39:12;;;;;;;2.80;0.80;;;19.90;53.70;;;;;;5016803;28;20400;-79
2023/03/08 08:41:38;;;;;;;4.88;0.93;;;19.90;53.70;;;;;;5033285;28;20037;-74
2023/03/08 08:44:03;;;;;;;3.03;0.80;;;20.00;53.80;;;;;;5033567;28;20045;-69
2023/03/08 08:46:30;;;;;;;2.72;0.70;;;20.00;54.40;;;;;;5034659;28;20524;-69
2023/03/08 08:48:57;;;;;;;2.97;1.08;;;20.00;53.70;;;;;;5035177;28;20405;-69
2023/03/08 08:51:22;;;;;;;4.43;1.00;;;20.00;54.40;;;;;;5018366;28;20034;-70
2023/03/08 08:53:51;;;;;;;;;;;20.00;53.70;;;;;;5019256;28;20476;-68
2023/03/08 08:56:21;;;;;;;3.67;1.00;;;20.00;53.70;;;;;;5016963;28;19921;-67
2023/03/08 08:58:47;;;;;;;2.08;0.88;;;20.00;53.60;;;;;;5015126;28;20034;-67
2023/03/08 09:01:17;;;;;;;4.40;1.05;;;20.00;54.40;;;;;;5014589;28;20040;-68
2023/03/08 09:03:44;;;;;;;8.63;1.08;;;20.10;53.70;;;;;;5032481;28;20100;-69
2023/03/08 09:06:10;;;;;;;2.95;0.90;;;20.00;53.50;;;;;;5016618;28;20045;-69
2023/03/08 09:08:35;;;;;;;2.83;0.90;;;20.10;53.50;;;;;;5028555;28;20047;-70
2023/03/08 09:11:03;;;;;;;2.22;0.90;;;20.10;53.50;;;;;;5024719;28;20439;-70
2023/03/08 09:13:29;;;;;;;2.80;0.97;;;20.10;53.60;;;;;;5033000;28;20049;-69
2023/03/08 09:15:54;;;;;;;2.53;1.00;;;20.10;53.50;;;;;;5014676;28;20050;-69
2023/03/08 09:18:20;;;;;;;2.50;0.80;;;20.10;53.50;;;;;;5016140;28;20037;-68
2023/03/08 09:20:45;;;;;;;2.97;1.20;;;20.10;53.50;;;;;;5033421;28;20401;-64
2023/03/08 09:23:11;;;;;;;1.70;0.88;;;20.10;53.50;;;;;;5032762;28;20125;-67
2023/03/08 09:25:36;;;;;;;3.95;0.80;;;20.10;53.50;;;;;;5030084;28;20041;-67
2023/03/08 09:28:02;;;;;;;2.40;0.98;;;20.10;53.30;;;;;;5033508;28;20038;-66
2023/03/08 09:30:28;;;;;;;3.40;1.23;;;20.10;53.40;;;;;;5033945;28;20378;-66
2023/03/08 09:32:53;;;;;;;2.70;0.88;;;20.10;53.50;;;;;;5031571;28;20531;-67
2023/03/08 09:35:19;;;;;;;3.17;1.13;;;20.10;53.50;;;;;;5032985;28;20111;-67
2023/03/08 09:37:44;;;;;;;1.92;0.80;;;20.10;53.50;;;;;;5033331;28;20071;-67
2023/03/08 09:40:20;;;;;;;2.97;0.98;;;20.20;53.60;;;;;;5032795;28;20049;-68
2023/03/08 09:42:46;;;;;;;2.42;1.08;;;20.20;53.60;;;;;;5028538;28;20509;-67
2023/03/08 09:45:11;;;;;;;2.60;1.00;;;20.20;53.60;;;;;;5033850;28;20046;-67
2023/03/08 09:47:58;;;;;;;2.60;1.08;;;20.20;53.60;;;;;;5031421;28;20132;-67
2023/03/08 09:50:31;;;;;;;3.00;1.20;;;20.20;53.70;;;;;;5033369;28;20081;-69
2023/03/08 09:53:04;;;;;;;2.45;1.30;;;20.20;53.70;;;;;;5033355;28;20112;-67
2023/03/08 09:55:33;;;;;;;3.45;1.13;;;20.20;53.60;;;;;;5032588;28;20085;-67
2023/03/08 09:58:18;;;;;;;2.95;1.10;;;20.20;53.60;;;;;;5032281;28;20045;-67
2023/03/08 10:00:45;;;;;;;3.58;1.13;;;20.20;53.60;;;;;;5017003;28;20046;-67
2023/03/08 10:03:29;;;;;;;2.63;0.85;;;20.20;53.70;;;;;;5034131;28;20037;-67
2023/03/08 10:05:58;;;;;;;3.25;1.15;;;20.20;53.60;;;;;;5022836;28;20505;-70
2023/03/08 10:08:35;;;;;;;;;;;20.20;53.70;;;;;;5025156;28;20060;-68
2023/03/08 10:11:11;;;;;;;5.28;1.30;;;20.20;53.60;;;;;;5039258;28;19917;-72
2023/03/08 10:13:37;;;;;;;4.95;1.30;;;20.20;53.60;;;;;;5031532;28;20107;-70
2023/03/08 10:16:21;;;;;;;2.67;1.20;;;20.20;53.70;;;;;;5031923;28;20134;-68
2023/03/08 10:19:06;;;;;;;3.78;1.42;;;20.20;53.80;;;;;;5032598;28;20136;-71
2023/03/08 10:21:32;;;;;;;4.93;1.80;;;20.20;53.20;;;;;;5013835;28;20057;-69
2023/03/08 10:24:11;;;;;;;2.67;1.30;;;20.20;53.20;;;;;;5031653;28;20038;-69
2023/03/08 10:26:39;;;;;;;7.75;1.77;;;20.20;54.20;;;;;;5030511;28;20064;-68
2023/03/08 10:29:05;;;;;;;5.35;1.70;;;20.20;53.60;;;;;;5030297;28;20466;-69
2023/03/08 10:31:32;;;;;;;5.18;1.88;;;20.20;53.60;;;;;;5031162;28;20053;-70
2023/03/08 10:34:18;;;;;;;2.90;1.50;;;20.20;53.60;;;;;;5031554;28;20065;-70
2023/03/08 10:37:01;;;;;;;6.28;1.50;;;20.20;53.60;;;;;;5029589;28;20080;-70
2023/03/08 10:39:26;;;;;;;3.25;1.38;;;20.20;53.60;;;;;;5033693;28;20144;-69
2023/03/08 10:41:54;;;;;;;4.80;1.80;;;20.20;53.60;;;;;;5032682;28;20069;-69
2023/03/08 10:44:42;;;;;;;3.45;1.40;;;20.20;53.50;;;;;;5034064;28;20445;-71
2023/03/08 10:47:26;;;;;;;3.00;1.50;;;20.20;53.30;;;;;;5052603;28;20449;-71
2023/03/08 10:50:15;;;;;;;2.75;1.45;;;20.20;53.30;;;;;;5051466;28;20052;-71
2023/03/08 10:52:41;;;;;;;4.53;1.42;;;20.20;53.30;;;;;;5052437;28;20546;-71
2023/03/08 10:55:10;;;;;;;3.58;1.13;;;20.20;53.40;;;;;;5026190;28;20562;-71
2023/03/08 10:57:35;;;;;;;2.88;1.35;;;20.20;53.40;;;;;;5032163;28;20056;-71
2023/03/08 11:00:16;;;;;;;11.68;1.58;;;20.20;54.10;;;;;;5032083;28;20041;-71
2023/03/08 11:02:42;;;;;;;3.22;1.38;;;20.20;53.40;;;;;;5030513;28;20061;-69
2023/03/08 11:05:17;;;;;;;5.72;1.50;;;20.30;53.50;;;;;;5031615;28;20095;-68
2023/03/08 11:07:49;;;;;;;3.00;1.52;;;20.20;53.50;;;;;;5029973;28;20056;-74
2023/03/08 11:10:17;;;;;;;6.28;1.77;;;20.20;53.60;;;;;;5029995;28;20045;-66
2023/03/08 11:12:43;;;;;;;4.72;1.70;;;20.20;53.60;;;;;;5033030;28;20053;-67
2023/03/08 11:15:16;;;;;;;4.63;1.55;;;20.20;53.60;;;;;;5030633;28;20042;-67
2023/03/08 11:17:55;;;;;;;3.28;1.38;;;20.20;53.60;;;;;;5031079;28;20096;-67
2023/03/08 11:20:27;;;;;;;6.05;1.92;;;20.20;53.70;;;;;;5031535;28;20049;-67
2023/03/08 11:23:12;;;;;;;4.68;1.40;;;20.20;53.70;;;;;;5033992;28;20048;-68
2023/03/08 11:26:08;;;;;;;4.35;1.80;;;20.20;53.70;;;;;;5035690;28;20411;-67
2023/03/08 11:28:55;;;;;;;3.80;2.00;;;20.30;53.90;;;;;;5022264;28;20076;-68
2023/03/08 11:31:27;;;;;;;5.03;1.60;;;20.30;53.90;;;;;;5033469;28;20463;-69
2023/03/08 11:33:53;;;;;;;3.90;1.67;;;20.30;54.60;;;;;;5031007;28;20103;-68
2023/03/08 11:36:55;;;;;;;4.55;1.58;;;20.20;53.90;;;;;;5032246;28;20050;-68
2023/03/08 11:39:29;;;;;;;5.15;1.50;;;20.20;53.90;;;;;;4973302;28;20058;-68
2023/03/08 11:41:57;;;;;;;3.55;1.70;;;20.20;53.90;;;;;;5029451;28;20050;-68
2023/03/08 11:44:59;;;;;;;4.80;1.77;;;20.20;53.90;;;;;;5032170;28;20061;-68
2023/03/08 11:47:50;;;;;;;3.75;1.77;;;20.20;53.90;;;;;;5034188;28;20045;-68
2023/03/08 11:50:26;;;;;;;4.45;1.60;;;20.30;54.00;;;;;;5052380;28;20082;-68
2023/03/08 11:53:04;;;;;;;3.80;1.73;;;20.20;53.90;;;;;;5021170;28;20045;-68
2023/03/08 11:55:55;;;;;;;6.15;2.55;;;20.20;53.90;;;;;;5038193;28;20440;-68
2023/03/08 11:58:45;;;;;;;6.25;1.90;;;20.30;53.80;;;;;;5019213;28;20057;-68
2023/03/08 12:01:17;;;;;;;5.22;1.98;;;20.20;53.70;;;;;;5049603;28;20110;-69
2023/03/08 12:03:44;;;;;;;7.25;2.80;;;20.20;53.70;;;;;;5043229;28;20049;-69
2023/03/08 12:06:13;;;;;;;5.37;2.70;;;20.20;53.40;;;;;;5028155;28;20049;-68
2023/03/08 12:08:44;;;;;;;5.45;2.63;;;20.20;53.20;;;;;;5027000;28;20049;-68
2023/03/08 12:11:18;;;;;;;5.32;2.83;;;20.20;53.20;;;;;;5036757;28;20037;-69
2023/03/08 12:13:47;;;;;;;6.50;3.40;;;20.20;53.00;;;;;;5034969;28;20382;-70
2023/03/08 12:16:14;;;;;;;5.40;2.97;;;20.20;52.50;;;;;;5033697;28;20107;-69
2023/03/08 12:18:43;;;;;;;5.90;3.10;;;20.20;52.40;;;;;;5036327;28;20092;-69
2023/03/08 12:21:15;;;;;;;5.55;3.03;;;20.20;52.30;;;;;;5037139;28;20092;-69
2023/03/08 12:23:41;;;;;;;6.70;3.30;;;20.20;52.40;;;;;;5036340;28;20520;-69
2023/03/08 12:26:19;;;;;;;6.53;3.50;;;20.20;52.40;;;;;;5039415;28;20073;-69
2023/03/08 12:28:55;;;;;;;8.02;3.42;;;20.20;52.40;;;;;;5036268;28;20051;-68
2023/03/08 12:31:27;;;;;;;6.35;3.22;;;20.20;52.40;;;;;;5021043;28;20077;-68
2023/03/08 12:33:53;;;;;;;7.40;3.50;;;20.20;52.40;;;;;;5035739;28;20091;-69
2023/03/08 12:36:21;;;;;;;6.57;3.20;;;20.20;52.40;;;;;;5035911;28;20041;-69
2023/03/08 12:38:51;;;;;;;6.97;3.30;;;20.20;52.30;;;;;;5037259;28;20037;-69
2023/03/08 12:41:27;;;;;;;5.93;3.10;;;20.20;52.40;;;;;;5036993;28;20311;-69
2023/03/08 12:44:27;;;;;;;5.93;3.13;;;20.20;52.30;;;;;;5033845;28;20099;-68
2023/03/08 12:46:56;;;;;;;6.30;3.25;;;20.20;52.30;;;;;;5036299;28;20061;-69
2023/03/08 12:49:28;;;;;;;5.88;3.10;;;20.20;52.30;;;;;;5036035;28;20037;-68
2023/03/08 12:52:02;;;;;;;7.22;3.10;;;20.20;52.30;;;;;;5035594;28;20048;-68
2023/03/08 12:54:30;;;;;;;5.47;3.42;;;20.20;52.30;;;;;;5003680;28;20116;-69